Time;durP1;ratioP1;P1;durP2;ratioP2;P2;SDS_P1;SDS_P2;PMS_P1;PMS_P2;Temp;Humidity;BMP_temperature;BMP_pressure;BME280_temperature;BME280_humidity;BME280_pressure;Samples;Min_cycle;Max_cycle;Signal;HPM_P1;HPM_P2
2022/03/03 00:01:27;;;;;;;32.85;19.23;;;7.20;91.90;;;;;;1935904;73;21142;-54
2022/03/03 00:03:57;;;;;;;34.55;20.25;;;7.10;91.80;;;;;;1935772;74;21312;-54
2022/03/03 00:06:26;;;;;;;35.73;19.70;;;7.10;91.70;;;;;;1935939;74;21265;-54
2022/03/03 00:08:55;;;;;;;30.15;18.75;;;7.10;91.80;;;;;;1935918;74;21684;-54
2022/03/03 00:11:25;;;;;;;35.05;19.57;;;7.10;91.80;;;;;;1935962;74;21498;-54
2022/03/03 00:13:54;;;;;;;27.50;17.70;;;7.10;92.10;;;;;;1935914;74;21133;-54
2022/03/03 00:16:23;;;;;;;35.68;18.67;;;7.10;91.80;;;;;;1936022;74;21233;-54
2022/03/03 00:18:53;;;;;;;34.30;20.02;;;7.10;91.70;;;;;;1935909;74;21146;-54
2022/03/03 00:21:22;;;;;;;30.65;19.45;;;7.10;91.80;;;;;;1935903;74;21245;-54
2022/03/03 00:23:52;;;;;;;35.60;18.67;;;7.10;91.90;;;;;;1935777;74;21868;-54
2022/03/03 00:26:21;;;;;;;31.73;18.60;;;7.10;91.80;;;;;;1935954;74;21076;-54
2022/03/03 00:28:50;;;;;;;30.08;17.85;;;7.10;91.90;;;;;;1935853;74;21130;-54
2022/03/03 00:31:20;;;;;;;27.25;15.60;;;7.00;91.90;;;;;;1936018;74;21143;-54
2022/03/03 00:33:49;;;;;;;29.70;17.57;;;7.00;91.70;;;;;;1935977;74;21145;-53
2022/03/03 00:36:19;;;;;;;34.10;18.40;;;6.90;91.90;;;;;;1935996;74;21129;-54
2022/03/03 00:38:48;;;;;;;32.28;17.57;;;6.90;91.80;;;;;;1936042;74;21201;-54
2022/03/03 00:41:18;;;;;;;31.35;15.98;;;6.80;91.90;;;;;;1935986;74;21147;-54
2022/03/03 00:43:47;;;;;;;32.60;18.65;;;6.90;91.90;;;;;;1935946;74;21212;-53
2022/03/03 00:46:17;;;;;;;33.88;18.77;;;6.80;91.80;;;;;;1936034;74;21568;-54
2022/03/03 00:48:46;;;;;;;32.95;17.12;;;6.90;91.80;;;;;;1935920;74;21081;-54
2022/03/03 00:51:15;;;;;;;35.60;17.00;;;6.80;91.80;;;;;;1935896;74;21063;-54
2022/03/03 00:53:45;;;;;;;26.00;13.43;;;6.80;91.80;;;;;;1935926;74;21166;-54
2022/03/03 00:56:14;;;;;;;27.50;14.85;;;6.80;91.90;;;;;;1935854;74;21260;-54
2022/03/03 00:58:44;;;;;;;32.67;16.65;;;6.80;91.80;;;;;;1935957;74;21142;-54
2022/03/03 01:01:13;;;;;;;25.48;14.33;;;6.80;91.80;;;;;;1935838;74;21168;-55
2022/03/03 01:03:43;;;;;;;32.45;16.48;;;6.80;91.70;;;;;;1935899;74;21575;-54
2022/03/03 01:06:13;;;;;;;31.30;17.02;;;6.80;91.80;;;;;;1935810;74;21161;-55
2022/03/03 01:08:43;;;;;;;31.10;15.93;;;6.80;91.70;;;;;;1935871;74;21198;-55
2022/03/03 01:11:12;;;;;;;34.50;18.07;;;6.80;91.70;;;;;;1935902;73;21023;-56
2022/03/03 01:13:41;;;;;;;32.50;16.15;;;6.80;91.80;;;;;;1935877;74;21073;-55
2022/03/03 01:16:11;;;;;;;32.33;15.80;;;6.80;91.80;;;;;;1936001;74;21095;-55
2022/03/03 01:18:40;;;;;;;30.65;15.72;;;6.80;91.90;;;;;;1935916;74;21153;-54
2022/03/03 01:21:09;;;;;;;31.50;16.17;;;6.80;91.90;;;;;;1936008;74;21560;-55
2022/03/03 01:23:38;;;;;;;32.53;17.07;;;6.80;91.90;;;;;;1935872;74;21082;-55
2022/03/03 01:26:08;;;;;;;27.20;15.13;;;6.70;91.80;;;;;;1935898;74;21047;-55
2022/03/03 01:28:37;;;;;;;30.68;15.83;;;6.70;91.80;;;;;;1935835;74;21142;-55
2022/03/03 01:31:07;;;;;;;31.12;17.40;;;6.70;92.00;;;;;;1935906;74;21078;-55
2022/03/03 01:33:36;;;;;;;32.63;16.07;;;6.60;91.90;;;;;;1935832;74;21133;-55
2022/03/03 01:36:06;;;;;;;28.07;16.12;;;6.60;92.00;;;;;;1935869;73;21099;-56
2022/03/03 01:38:35;;;;;;;32.40;16.45;;;6.60;92.00;;;;;;1935952;73;21080;-55
2022/03/03 01:41:05;;;;;;;33.23;16.27;;;6.60;91.90;;;;;;1935792;74;21118;-55
2022/03/03 01:43:34;;;;;;;32.98;16.87;;;6.60;92.00;;;;;;1935920;74;21019;-55
2022/03/03 01:46:04;;;;;;;30.75;15.18;;;6.60;91.90;;;;;;1935972;74;21079;-53
2022/03/03 01:48:33;;;;;;;32.78;16.25;;;6.70;92.00;;;;;;1935937;74;21083;-55
2022/03/03 01:51:03;;;;;;;29.30;16.30;;;6.60;91.90;;;;;;1935923;74;21118;-55
2022/03/03 01:53:32;;;;;;;33.90;15.90;;;6.70;91.80;;;;;;1935791;73;21144;-55
2022/03/03 01:56:01;;;;;;;30.08;14.93;;;6.60;92.00;;;;;;1935820;73;21618;-55
2022/03/03 01:58:31;;;;;;;26.50;14.78;;;6.60;92.00;;;;;;1935804;74;21079;-54
2022/03/03 02:01:00;;;;;;;33.58;17.00;;;6.60;91.80;;;;;;1935852;73;21202;-55
2022/03/03 02:03:30;;;;;;;35.43;16.93;;;6.60;92.10;;;;;;1935783;73;21237;-55
2022/03/03 02:05:59;;;;;;;32.42;17.35;;;6.60;92.00;;;;;;1935934;74;21331;-55
2022/03/03 02:08:29;;;;;;;32.88;16.07;;;6.50;92.00;;;;;;1936084;74;21595;-55
2022/03/03 02:10:59;;;;;;;35.98;17.37;;;6.50;91.90;;;;;;1936021;74;21077;-56
2022/03/03 02:13:28;;;;;;;25.77;14.43;;;6.60;92.20;;;;;;1935958;74;21085;-55
2022/03/03 02:15:57;;;;;;;26.70;15.53;;;6.60;92.00;;;;;;1935977;74;21087;-55
2022/03/03 02:18:27;;;;;;;28.00;15.08;;;6.60;92.10;;;;;;1935902;74;21027;-55
2022/03/03 02:20:56;;;;;;;29.37;13.95;;;6.60;92.10;;;;;;1935956;74;21138;-55
2022/03/03 02:23:26;;;;;;;29.00;15.43;;;6.60;92.00;;;;;;1935955;73;21139;-55
2022/03/03 02:25:55;;;;;;;29.27;14.70;;;6.60;92.00;;;;;;1935966;74;21142;-55
2022/03/03 02:28:25;;;;;;;25.57;13.60;;;6.60;92.30;;;;;;1936079;74;21162;-55
2022/03/03 02:30:54;;;;;;;25.85;13.98;;;6.60;91.90;;;;;;1935923;74;21140;-55
2022/03/03 02:33:24;;;;;;;27.42;13.75;;;6.60;92.00;;;;;;1935938;74;21020;-55
2022/03/03 02:35:53;;;;;;;22.37;12.60;;;6.60;92.00;;;;;;1935950;74;21143;-55
2022/03/03 02:38:22;;;;;;;24.80;14.47;;;6.60;92.00;;;;;;1936062;74;21101;-55
2022/03/03 02:40:52;;;;;;;28.60;14.43;;;6.60;92.00;;;;;;1935962;74;21138;-55
2022/03/03 02:43:21;;;;;;;21.70;13.65;;;6.60;91.80;;;;;;1935882;74;21135;-55
2022/03/03 02:45:51;;;;;;;23.83;12.15;;;6.60;92.00;;;;;;1936075;74;21082;-55
2022/03/03 02:48:20;;;;;;;24.50;12.70;;;6.60;92.10;;;;;;1936020;74;21255;-55
2022/03/03 02:50:50;;;;;;;27.15;12.78;;;6.50;92.00;;;;;;1935965;74;21043;-55
2022/03/03 02:53:19;;;;;;;27.90;13.80;;;6.50;92.00;;;;;;1936035;74;21086;-55
2022/03/03 02:55:48;;;;;;;20.92;11.80;;;6.50;92.10;;;;;;1935947;73;21067;-53
2022/03/03 02:58:18;;;;;;;26.75;14.10;;;6.50;92.20;;;;;;1935906;74;21141;-55
2022/03/03 03:00:47;;;;;;;25.32;13.62;;;6.50;92.10;;;;;;1935959;74;21142;-55
2022/03/03 03:03:17;;;;;;;31.55;14.83;;;6.40;92.10;;;;;;1935975;74;21134;-55
2022/03/03 03:05:48;;;;;;;21.57;11.20;;;6.40;92.10;;;;;;1936118;74;21202;-55
2022/03/03 03:08:17;;;;;;;27.07;15.35;;;6.40;92.20;;;;;;1938347;74;21180;-54
2022/03/03 03:10:46;;;;;;;20.23;12.20;;;6.40;92.10;;;;;;1938322;74;21573;-55
2022/03/03 03:13:15;;;;;;;29.10;13.60;;;6.40;92.20;;;;;;1938180;74;21231;-55
2022/03/03 03:15:46;;;;;;;22.15;11.93;;;6.40;92.20;;;;;;1938278;74;21279;-55
2022/03/03 03:18:19;;;;;;;26.07;12.82;;;6.40;92.10;;;;;;1937909;74;21046;-55
2022/03/03 03:20:53;;;;;;;23.87;14.50;;;6.40;92.10;;;;;;1938165;73;21719;-55
2022/03/03 03:23:24;;;;;;;20.70;11.03;;;6.40;92.00;;;;;;1938315;74;21149;-55
2022/03/03 03:25:55;;;;;;;23.22;12.00;;;6.40;92.20;;;;;;1938238;73;21601;-55
2022/03/03 03:28:25;;;;;;;21.23;11.30;;;6.40;92.10;;;;;;1938240;74;21022;-55
2022/03/03 03:30:54;;;;;;;18.17;10.32;;;6.40;92.10;;;;;;1938296;74;21134;-55
2022/03/03 03:33:23;;;;;;;28.02;13.43;;;6.40;92.30;;;;;;1938108;74;21138;-55
2022/03/03 03:35:53;;;;;;;26.75;14.10;;;6.40;92.10;;;;;;1938297;74;21058;-55
2022/03/03 03:38:22;;;;;;;23.85;11.35;;;6.40;92.20;;;;;;1938144;74;21244;-55
2022/03/03 03:40:52;;;;;;;18.95;9.70;;;6.40;92.10;;;;;;1938240;74;21162;-55
2022/03/03 03:43:21;;;;;;;15.60;9.83;;;6.40;92.20;;;;;;1938166;74;21086;-55
2022/03/03 03:45:50;;;;;;;19.45;10.48;;;6.40;92.20;;;;;;1938232;74;21214;-55
2022/03/03 03:48:20;;;;;;;25.35;14.05;;;6.30;92.20;;;;;;1938159;74;21022;-54
2022/03/03 03:50:50;;;;;;;20.10;11.88;;;6.30;92.20;;;;;;1938296;74;21275;-55
2022/03/03 03:53:19;;;;;;;18.60;10.28;;;6.30;92.30;;;;;;1938243;74;21079;-55
2022/03/03 03:55:49;;;;;;;17.92;11.38;;;6.30;92.30;;;;;;1938324;74;21086;-55
2022/03/03 03:58:18;;;;;;;14.33;9.38;;;6.30;92.40;;;;;;1938120;74;21201;-55
2022/03/03 04:00:48;;;;;;;22.67;13.68;;;6.20;92.50;;;;;;1938476;74;21141;-55
2022/03/03 04:03:17;;;;;;;26.33;12.78;;;6.20;92.50;;;;;;1938363;74;21059;-55
2022/03/03 04:05:47;;;;;;;21.17;11.25;;;6.20;92.50;;;;;;1938448;74;21047;-55
2022/03/03 04:08:18;;;;;;;28.12;12.65;;;6.20;92.50;;;;;;1949698;73;21106;-55
2022/03/03 04:10:48;;;;;;;30.12;16.05;;;6.20;92.50;;;;;;1951522;73;21082;-55
2022/03/03 04:13:18;;;;;;;20.92;10.70;;;6.20;92.50;;;;;;1951212;73;21667;-55
2022/03/03 04:15:47;;;;;;;23.45;10.85;;;6.20;92.60;;;;;;1951299;73;21389;-55
2022/03/03 04:18:17;;;;;;;22.58;12.65;;;6.20;92.70;;;;;;1951251;73;21086;-55
2022/03/03 04:20:46;;;;;;;16.93;9.75;;;6.20;92.60;;;;;;1951416;73;21197;-54
2022/03/03 04:23:19;;;;;;;20.70;11.88;;;6.20;92.60;;;;;;1951260;73;21216;-54
2022/03/03 04:25:48;;;;;;;11.30;6.67;;;6.10;92.70;;;;;;1951306;73;21078;-55
2022/03/03 04:28:18;;;;;;;20.97;11.18;;;6.10;92.80;;;;;;1951377;73;21141;-55
2022/03/03 04:30:48;;;;;;;22.07;11.45;;;6.10;92.80;;;;;;1951282;73;21284;-55
2022/03/03 04:33:17;;;;;;;15.30;9.15;;;6.10;92.60;;;;;;1951277;73;21210;-55
2022/03/03 04:35:47;;;;;;;17.85;11.25;;;6.10;92.90;;;;;;1951407;73;21019;-55
2022/03/03 04:38:16;;;;;;;20.88;11.53;;;6.10;92.80;;;;;;1951384;73;21227;-55
2022/03/03 04:40:46;;;;;;;18.07;10.25;;;6.10;92.70;;;;;;1951253;73;21145;-56
2022/03/03 04:43:14;;;;;;;19.85;10.35;;;6.10;92.70;;;;;;1951385;73;21066;-56
2022/03/03 04:45:44;;;;;;;20.85;9.93;;;6.10;92.70;;;;;;1951274;73;21221;-56
2022/03/03 04:48:14;;;;;;;20.23;11.50;;;6.10;92.70;;;;;;1951243;73;21141;-56
2022/03/03 04:50:43;;;;;;;17.92;10.40;;;6.10;92.60;;;;;;1951347;73;21286;-55
2022/03/03 04:53:13;;;;;;;21.02;9.80;;;6.10;92.50;;;;;;1951377;73;21027;-56
2022/03/03 04:55:42;;;;;;;9.43;5.83;;;6.10;92.50;;;;;;1951311;73;21141;-56
2022/03/03 04:58:12;;;;;;;20.55;10.63;;;6.10;92.60;;;;;;1951240;73;21043;-56
2022/03/03 05:00:41;;;;;;;17.45;9.98;;;6.00;92.50;;;;;;1951445;73;21193;-56
2022/03/03 05:03:11;;;;;;;22.50;10.63;;;6.00;92.60;;;;;;1951492;73;21197;-56
2022/03/03 05:05:40;;;;;;;21.30;10.48;;;6.00;92.50;;;;;;1951562;73;21578;-56
2022/03/03 05:08:09;;;;;;;15.75;8.95;;;6.00;92.40;;;;;;1944011;73;21091;-56
2022/03/03 05:10:39;;;;;;;17.85;10.68;;;6.00;92.40;;;;;;1938310;74;21403;-56
2022/03/03 05:13:08;;;;;;;21.82;10.53;;;6.00;92.40;;;;;;1938149;74;21166;-56
2022/03/03 05:15:38;;;;;;;20.05;9.50;;;6.00;92.30;;;;;;1938255;74;21130;-56
2022/03/03 05:18:09;;;;;;;14.85;9.23;;;6.00;92.20;;;;;;1936512;74;21122;-56
2022/03/03 05:20:38;;;;;;;15.83;8.00;;;6.00;92.20;;;;;;1938354;74;21051;-56
2022/03/03 05:23:09;;;;;;;16.15;8.78;;;6.00;92.20;;;;;;1938227;74;21205;-56
2022/03/03 05:25:38;;;;;;;17.42;10.18;;;6.00;92.10;;;;;;1938277;74;21199;-56
2022/03/03 05:28:08;;;;;;;20.85;11.22;;;5.90;92.10;;;;;;1938191;74;21116;-56
2022/03/03 05:30:37;;;;;;;21.75;11.48;;;5.90;92.20;;;;;;1938234;74;21081;-56
2022/03/03 05:33:07;;;;;;;13.40;8.83;;;6.00;92.30;;;;;;1938181;74;21209;-56
2022/03/03 05:35:36;;;;;;;14.75;9.00;;;6.00;92.20;;;;;;1938342;74;21007;-56
2022/03/03 05:38:06;;;;;;;9.88;5.75;;;5.90;92.10;;;;;;1938222;74;21133;-56
2022/03/03 05:40:35;;;;;;;9.70;6.75;;;6.00;91.90;;;;;;1938151;74;21087;-56
2022/03/03 05:43:05;;;;;;;13.28;7.28;;;5.90;91.90;;;;;;1938216;74;21019;-57
2022/03/03 05:45:35;;;;;;;11.55;6.12;;;5.90;91.80;;;;;;1938265;74;21088;-57
2022/03/03 05:48:05;;;;;;;16.17;8.00;;;5.90;92.00;;;;;;1938217;73;21148;-56
2022/03/03 05:50:35;;;;;;;14.90;8.53;;;5.90;92.00;;;;;;1938324;74;21103;-56
2022/03/03 05:53:04;;;;;;;11.48;6.75;;;5.90;92.20;;;;;;1938137;74;21059;-57
2022/03/03 05:55:35;;;;;;;12.73;7.10;;;5.90;92.00;;;;;;1938140;74;21075;-56
2022/03/03 05:58:05;;;;;;;11.28;6.55;;;5.90;91.90;;;;;;1937979;74;21073;-56
2022/03/03 06:00:36;;;;;;;12.98;7.30;;;5.90;91.70;;;;;;1938285;74;21172;-56
2022/03/03 06:03:05;;;;;;;8.90;5.83;;;5.80;91.80;;;;;;1938190;74;21019;-56
2022/03/03 06:05:37;;;;;;;14.43;6.95;;;5.80;91.80;;;;;;1938224;74;21071;-56
2022/03/03 06:08:07;;;;;;;11.83;6.08;;;5.80;91.90;;;;;;1938275;74;21047;-56
2022/03/03 06:10:38;;;;;;;15.03;6.80;;;5.90;91.90;;;;;;1938222;74;21016;-56
2022/03/03 06:13:19;;;;;;;11.75;6.58;;;5.90;91.90;;;;;;1938093;74;21524;-56
2022/03/03 06:15:48;;;;;;;10.65;6.42;;;6.00;92.00;;;;;;1938289;73;21031;-56
2022/03/03 06:18:23;;;;;;;6.25;4.40;;;6.00;91.60;;;;;;1938357;74;21015;-56
2022/03/03 06:20:53;;;;;;;10.63;7.05;;;6.00;91.30;;;;;;1938266;73;21176;-56
2022/03/03 06:23:23;;;;;;;6.60;4.85;;;6.00;91.40;;;;;;1938284;74;21043;-56
2022/03/03 06:26:07;;;;;;;9.28;5.87;;;5.90;91.50;;;;;;1938208;74;21051;-56
2022/03/03 06:28:37;;;;;;;8.45;5.40;;;5.90;91.60;;;;;;1938256;74;21114;-55
2022/03/03 06:31:07;;;;;;;8.60;4.55;;;5.90;91.50;;;;;;1938187;74;21205;-55
2022/03/03 06:33:37;;;;;;;9.60;6.08;;;5.90;91.50;;;;;;1938172;74;21031;-54
2022/03/03 06:36:07;;;;;;;11.08;6.17;;;5.90;91.40;;;;;;1938227;74;21019;-55
2022/03/03 06:38:36;;;;;;;8.90;5.83;;;5.90;91.60;;;;;;1938301;74;20999;-55
2022/03/03 06:41:06;;;;;;;8.48;5.35;;;5.90;91.70;;;;;;1938234;74;21035;-55
2022/03/03 06:43:36;;;;;;;13.10;6.62;;;5.90;91.60;;;;;;1938146;74;21122;-55
2022/03/03 06:46:06;;;;;;;9.00;5.60;;;6.00;91.50;;;;;;1938323;74;21093;-55
2022/03/03 06:48:35;;;;;;;11.30;6.75;;;5.90;91.30;;;;;;1938200;74;21140;-55
2022/03/03 06:51:05;;;;;;;10.82;6.17;;;5.90;91.40;;;;;;1938330;74;21071;-55
2022/03/03 06:53:36;;;;;;;9.85;5.85;;;5.90;91.50;;;;;;1938361;74;21019;-55
2022/03/03 06:56:08;;;;;;;9.58;6.30;;;6.00;91.50;;;;;;1938473;74;21047;-55
2022/03/03 06:58:38;;;;;;;11.83;6.62;;;6.00;91.40;;;;;;1937929;74;21087;-55
2022/03/03 07:01:12;;;;;;;11.57;6.67;;;5.90;91.50;;;;;;1938442;74;21083;-55
2022/03/03 07:03:42;;;;;;;10.80;7.62;;;5.90;91.50;;;;;;1938392;74;21159;-55
2022/03/03 07:06:13;;;;;;;15.20;8.45;;;6.00;91.60;;;;;;1938404;74;21015;-55
2022/03/03 07:08:43;;;;;;;11.05;6.97;;;6.00;91.70;;;;;;1941425;73;21114;-54
2022/03/03 07:11:13;;;;;;;8.53;5.15;;;6.10;91.60;;;;;;1951547;73;21015;-55
2022/03/03 07:13:45;;;;;;;8.75;6.03;;;6.20;91.40;;;;;;1951441;73;21070;-55
2022/03/03 07:16:29;;;;;;;11.20;6.40;;;6.10;91.30;;;;;;1951455;73;21014;-55
2022/03/03 07:19:01;;;;;;;7.80;5.37;;;6.10;91.30;;;;;;1950855;73;21043;-54
2022/03/03 07:21:57;;;;;;;12.98;7.75;;;6.10;91.20;;;;;;1951540;73;21080;-55
2022/03/03 07:24:37;;;;;;;7.50;4.95;;;6.10;91.40;;;;;;1950497;73;21533;-54
2022/03/03 07:27:10;;;;;;;11.73;6.55;;;6.00;91.30;;;;;;1905171;73;21053;-55
2022/03/03 07:29:40;;;;;;;11.50;5.83;;;6.00;91.20;;;;;;1951420;73;21042;-55
2022/03/03 07:32:10;;;;;;;13.75;7.87;;;6.00;91.30;;;;;;1951374;73;21095;-55
2022/03/03 07:34:40;;;;;;;10.18;6.12;;;6.00;91.80;;;;;;1951456;73;21014;-55
2022/03/03 07:37:15;;;;;;;9.53;6.45;;;6.10;91.50;;;;;;1951370;73;21151;-55
2022/03/03 07:39:44;;;;;;;;;;;6.10;91.40;;;;;;1954349;73;20990;-55
2022/03/03 07:42:15;;;;;;;9.70;5.75;;;6.00;91.30;;;;;;1951507;73;20354;-55
2022/03/03 07:44:45;;;;;;;8.00;4.80;;;6.00;91.40;;;;;;1951206;73;21063;-55
2022/03/03 07:47:15;;;;;;;8.38;5.97;;;6.00;91.40;;;;;;1951371;73;21082;-55
2022/03/03 07:49:46;;;;;;;9.83;6.17;;;6.00;91.40;;;;;;1951432;73;21228;-55
2022/03/03 07:52:15;;;;;;;11.20;6.50;;;6.10;91.50;;;;;;1951308;73;21019;-55
2022/03/03 07:54:45;;;;;;;12.65;6.80;;;6.10;91.50;;;;;;1951469;73;21102;-55
2022/03/03 07:57:16;;;;;;;13.85;8.43;;;6.10;91.40;;;;;;1951343;73;21207;-55
2022/03/03 07:59:48;;;;;;;11.50;6.72;;;6.10;91.50;;;;;;1951458;73;21168;-55
2022/03/03 08:02:25;;;;;;;10.38;6.70;;;6.20;91.50;;;;;;1951566;73;21444;-55
2022/03/03 08:04:54;;;;;;;11.35;6.70;;;6.20;91.60;;;;;;1951444;73;21215;-55
2022/03/03 08:07:23;;;;;;;9.03;5.20;;;6.30;91.50;;;;;;1951487;73;21140;-55
2022/03/03 08:09:56;;;;;;;6.67;4.50;;;6.30;91.30;;;;;;1951340;73;21213;-55
2022/03/03 08:12:25;;;;;;;7.53;4.67;;;6.30;91.20;;;;;;1950330;73;21080;-55
2022/03/03 08:14:56;;;;;;;8.85;5.03;;;6.30;91.30;;;;;;1951360;73;21117;-55
2022/03/03 08:17:26;;;;;;;7.28;5.17;;;6.30;91.30;;;;;;1951387;73;21022;-54
2022/03/03 08:19:56;;;;;;;7.42;4.78;;;6.30;91.30;;;;;;1951508;73;21015;-54
2022/03/03 08:22:26;;;;;;;7.33;3.87;;;6.30;91.40;;;;;;1950917;73;20999;-53
2022/03/03 08:24:57;;;;;;;3.95;2.90;;;6.30;91.20;;;;;;1950175;73;20987;-49
2022/03/03 08:27:27;;;;;;;5.28;3.95;;;6.30;91.00;;;;;;1950767;73;21200;-50
2022/03/03 08:29:58;;;;;;;6.30;3.98;;;6.30;91.20;;;;;;1950863;73;21134;-52
2022/03/03 08:32:30;;;;;;;4.50;3.05;;;6.30;91.40;;;;;;1950727;73;21501;-51
2022/03/03 08:35:16;;;;;;;5.78;3.90;;;6.40;91.20;;;;;;1950835;73;21022;-53
2022/03/03 11:52:00;;;;;;;5.30;4.22;;;3.70;91.10;;;;;;1958080;73;25806;-49
2022/03/03 11:54:32;;;;;;;7.17;4.25;;;3.60;91.60;;;;;;1915985;74;21027;-55
2022/03/03 11:57:10;;;;;;;4.30;2.60;;;3.70;91.50;;;;;;1917356;75;21954;-51
2022/03/03 11:59:42;;;;;;;4.47;3.50;;;3.70;91.60;;;;;;1917429;75;21086;-51
2022/03/03 12:02:11;;;;;;;4.58;3.25;;;3.70;91.50;;;;;;1917217;75;21534;-54
2022/03/03 12:04:40;;;;;;;3.55;2.33;;;3.80;91.50;;;;;;1917407;75;21072;-53
2022/03/03 12:07:27;;;;;;;3.95;2.83;;;3.80;91.20;;;;;;1917348;74;21098;-50
2022/03/03 12:09:57;;;;;;;3.37;3.08;;;3.80;91.10;;;;;;1884726;76;21094;-54
2022/03/03 12:12:31;;;;;;;3.80;3.02;;;3.80;91.00;;;;;;1884840;76;21091;-51
2022/03/03 12:15:01;;;;;;;;;;;3.80;91.00;;;;;;1913504;75;21078;-53
2022/03/03 12:17:45;;;;;;;2.55;2.35;;;3.80;91.10;;;;;;1901243;75;20145;-53
2022/03/03 12:20:37;;;;;;;5.97;2.75;;;3.70;91.20;;;;;;1902526;75;22254;-55
2022/03/03 12:23:12;;;;;;;3.40;3.00;;;3.70;91.20;;;;;;1899987;75;21028;-49
2022/03/03 12:25:57;;;;;;;3.25;2.85;;;3.70;91.20;;;;;;1900020;75;21118;-51
2022/03/03 12:28:39;;;;;;;3.25;2.62;;;3.80;91.20;;;;;;1901164;75;21020;-48
2022/03/03 12:31:29;;;;;;;7.20;3.67;;;3.70;91.10;;;;;;1889799;75;21046;-54
2022/03/03 12:34:06;;;;;;;5.95;4.00;;;3.80;91.20;;;;;;1884088;76;21222;-55
2022/03/03 12:36:37;;;;;;;4.30;3.17;;;3.80;91.40;;;;;;1884464;76;21079;-55
2022/03/03 12:39:08;;;;;;;6.15;4.78;;;3.90;91.30;;;;;;1885693;76;21017;-56
2022/03/03 12:41:39;;;;;;;7.55;3.37;;;3.90;91.20;;;;;;1885578;76;21036;-52
2022/03/03 12:44:13;;;;;;;14.20;4.08;;;3.90;90.90;;;;;;1885761;76;21427;-56
2022/03/03 12:46:44;;;;;;;14.58;6.15;;;3.90;90.90;;;;;;1885778;76;21463;-54
2022/03/03 12:49:14;;;;;;;9.53;5.62;;;3.80;91.00;;;;;;1885769;76;21032;-55
2022/03/03 12:51:45;;;;;;;45.67;19.32;;;3.80;91.00;;;;;;1883731;75;21165;-53
2022/03/03 12:54:16;;;;;;;15.88;10.70;;;3.90;91.10;;;;;;1882891;76;21089;-49
2022/03/03 12:57:00;;;;;;;13.18;7.95;;;3.80;91.20;;;;;;1882504;76;21114;-52
2022/03/03 12:59:34;;;;;;;13.72;8.40;;;3.90;91.20;;;;;;1882103;76;21727;-50
2022/03/03 13:02:00;;;;;;;10.15;5.65;;;3.90;91.40;;;;;;1881928;76;21522;-49
2022/03/03 13:04:30;;;;;;;8.23;5.45;;;3.90;91.40;;;;;;1882179;76;21120;-51
2022/03/03 13:07:07;;;;;;;6.22;4.90;;;3.90;91.30;;;;;;1882199;76;21137;-48
2022/03/03 13:09:36;;;;;;;6.53;4.67;;;4.00;91.40;;;;;;1882356;75;21209;-53
2022/03/03 13:12:06;;;;;;;11.43;3.95;;;4.00;91.50;;;;;;1882170;75;21129;-49
2022/03/03 13:14:35;;;;;;;6.87;1.85;;;4.00;91.30;;;;;;1882183;76;21084;-49
2022/03/03 13:17:11;;;;;;;4.05;2.30;;;3.90;91.10;;;;;;1882302;76;21092;-50
2022/03/03 13:19:50;;;;;;;5.30;2.52;;;3.80;91.20;;;;;;1882412;76;21092;-49
2022/03/03 13:22:19;;;;;;;2.42;1.82;;;3.80;91.20;;;;;;1882181;76;21079;-49
2022/03/03 13:24:49;;;;;;;2.58;2.37;;;3.80;91.40;;;;;;1882248;76;21146;-51
2022/03/03 13:27:18;;;;;;;4.50;2.27;;;3.80;91.40;;;;;;1882290;76;21187;-51
2022/03/03 13:29:48;;;;;;;2.27;1.60;;;3.80;91.30;;;;;;1882326;76;21116;-49
2022/03/03 13:32:17;;;;;;;2.37;2.08;;;3.80;91.50;;;;;;1882238;75;21088;-50
2022/03/03 13:34:46;;;;;;;2.42;2.17;;;3.70;91.50;;;;;;1882304;76;21048;-50
2022/03/03 13:37:18;;;;;;;1.92;1.35;;;3.70;91.40;;;;;;1882285;76;21093;-52
2022/03/03 13:39:48;;;;;;;2.12;1.92;;;3.80;91.50;;;;;;1881302;76;21223;-50
2022/03/03 13:42:20;;;;;;;5.12;1.82;;;3.80;91.60;;;;;;1882399;76;21106;-52
2022/03/03 13:44:54;;;;;;;10.20;2.45;;;3.70;91.60;;;;;;1882299;76;21099;-50
2022/03/03 13:47:29;;;;;;;4.97;2.58;;;3.80;91.60;;;;;;1882369;76;21146;-52
2022/03/03 13:49:59;;;;;;;1.60;1.12;;;3.80;91.60;;;;;;1882369;76;21028;-49
2022/03/03 13:52:41;;;;;;;10.98;1.70;;;3.70;91.50;;;;;;1875321;75;21240;-52
2022/03/03 13:55:16;;;;;;;4.20;1.52;;;3.70;91.40;;;;;;1872732;77;21230;-48
2022/03/03 13:57:55;;;;;;;1.98;1.32;;;3.70;91.30;;;;;;1872971;77;21223;-52
2022/03/03 14:00:30;;;;;;;14.18;2.10;;;3.60;91.30;;;;;;1872736;76;21153;-49
2022/03/03 14:03:15;;;;;;;2.37;1.50;;;3.60;91.30;;;;;;1873019;77;21078;-52
2022/03/03 14:05:53;;;;;;;3.50;2.90;;;3.60;91.50;;;;;;1872904;77;21028;-48
2022/03/03 14:08:25;;;;;;;3.27;2.35;;;3.60;91.50;;;;;;1871888;76;21175;-52
2022/03/03 14:10:56;;;;;;;1.80;1.70;;;3.70;91.70;;;;;;1872759;77;21065;-48
2022/03/03 14:13:27;;;;;;;5.53;1.65;;;3.70;91.60;;;;;;1872846;76;21045;-49
2022/03/03 14:15:58;;;;;;;2.33;1.80;;;3.80;91.50;;;;;;1872737;77;21151;-49
2022/03/03 14:18:29;;;;;;;3.33;2.02;;;3.80;91.50;;;;;;1872901;77;21093;-50
2022/03/03 14:20:59;;;;;;;2.00;1.80;;;3.90;91.70;;;;;;1872761;77;21464;-49
2022/03/03 14:23:29;;;;;;;4.25;1.72;;;4.00;91.60;;;;;;1872704;77;21215;-52
2022/03/03 14:25:59;;;;;;;2.17;1.50;;;4.00;91.50;;;;;;1872804;77;21189;-49
2022/03/03 14:28:30;;;;;;;2.20;1.47;;;4.00;91.20;;;;;;1872690;76;21163;-51
2022/03/03 14:31:00;;;;;;;3.25;2.10;;;4.00;91.50;;;;;;1872876;76;21087;-50
2022/03/03 14:33:30;;;;;;;2.10;1.72;;;3.90;91.20;;;;;;1872754;77;21096;-48
2022/03/03 14:36:00;;;;;;;8.38;1.87;;;4.00;91.40;;;;;;1872849;75;21159;-51
2022/03/03 14:38:29;;;;;;;2.95;1.37;;;3.90;91.30;;;;;;1872841;77;21157;-49
2022/03/03 14:41:00;;;;;;;4.85;1.30;;;3.90;91.30;;;;;;1872735;76;21033;-51
2022/03/03 14:43:31;;;;;;;1.77;1.10;;;3.90;91.30;;;;;;1872741;77;21218;-50
2022/03/03 14:46:01;;;;;;;1.65;0.80;;;3.90;91.30;;;;;;1872760;77;21084;-50
2022/03/03 14:48:32;;;;;;;6.80;0.85;;;3.90;91.30;;;;;;1872734;76;21089;-49
2022/03/03 14:51:00;;;;;;;1.50;1.00;;;3.80;91.30;;;;;;1873006;75;21075;-50
2022/03/03 14:53:30;;;;;;;1.80;1.70;;;3.80;91.40;;;;;;1877751;76;21056;-49
2022/03/03 14:56:00;;;;;;;2.00;1.42;;;3.80;91.60;;;;;;1882063;76;21174;-49
2022/03/03 14:58:29;;;;;;;2.37;1.42;;;3.80;91.60;;;;;;1882108;76;21092;-49
2022/03/03 15:01:00;;;;;;;5.05;1.77;;;3.80;91.50;;;;;;1882029;76;21114;-50
2022/03/03 15:03:29;;;;;;;4.25;1.40;;;3.80;91.60;;;;;;1882304;76;21105;-49
2022/03/03 15:05:59;;;;;;;3.47;1.55;;;3.80;91.60;;;;;;1882142;76;21161;-50
2022/03/03 15:08:30;;;;;;;2.17;1.55;;;3.80;91.60;;;;;;1882230;76;21045;-48
2022/03/03 15:10:59;;;;;;;1.65;1.35;;;3.80;91.50;;;;;;1882227;75;21048;-50
2022/03/03 15:13:29;;;;;;;1.90;1.20;;;3.80;91.50;;;;;;1882313;75;21082;-49
2022/03/03 15:15:58;;;;;;;0.93;0.90;;;3.80;91.50;;;;;;1882244;76;21085;-49
2022/03/03 15:18:27;;;;;;;1.20;1.10;;;3.80;91.50;;;;;;1882227;76;21090;-50
2022/03/03 15:20:57;;;;;;;1.30;1.20;;;3.70;91.50;;;;;;1882260;76;21049;-51
2022/03/03 15:23:26;;;;;;;1.62;1.25;;;3.70;91.60;;;;;;1882281;75;21028;-49
2022/03/03 15:25:56;;;;;;;1.50;1.10;;;3.70;91.70;;;;;;1882223;76;21017;-48
2022/03/03 15:28:26;;;;;;;1.70;1.60;;;3.70;91.60;;;;;;1882250;76;21081;-48
2022/03/03 15:30:55;;;;;;;2.25;2.00;;;3.60;91.70;;;;;;1882283;76;21089;-50
2022/03/03 15:38:59;;;;;;;3.27;2.45;;;3.60;91.80;;;;;;1882308;76;21040;-48
2022/03/03 15:41:28;;;;;;;0.98;0.98;;;3.60;91.80;;;;;;1882346;76;21223;-49
2022/03/03 15:43:57;;;;;;;3.55;2.35;;;3.70;91.90;;;;;;1882311;75;21458;-47
2022/03/03 15:46:27;;;;;;;1.27;1.17;;;3.70;91.80;;;;;;1882107;75;21097;-47
2022/03/03 15:48:56;;;;;;;4.40;2.65;;;3.70;91.80;;;;;;1882176;76;21175;-48
2022/03/03 15:51:26;;;;;;;3.27;2.40;;;3.70;91.90;;;;;;1882111;76;21097;-48
2022/03/03 15:53:56;;;;;;;1.10;1.00;;;3.70;91.90;;;;;;1882104;75;21044;-51
2022/03/03 15:56:25;;;;;;;1.80;1.70;;;3.70;91.80;;;;;;1882080;75;21052;-49
2022/03/03 15:58:55;;;;;;;1.45;1.35;;;3.70;91.90;;;;;;1882181;75;21118;-49
2022/03/03 16:01:24;;;;;;;6.35;1.75;;;3.70;91.90;;;;;;1882064;75;21102;-49
2022/03/03 16:03:56;;;;;;;3.70;1.98;;;3.70;91.90;;;;;;1882187;75;21214;-49
2022/03/03 16:06:27;;;;;;;2.98;2.67;;;3.70;92.00;;;;;;1882212;76;21114;-47
2022/03/03 16:08:56;;;;;;;2.12;1.85;;;3.70;91.90;;;;;;1882080;75;21167;-48
2022/03/03 16:11:25;;;;;;;10.40;2.77;;;3.70;91.90;;;;;;1882167;75;21482;-49
2022/03/03 16:13:55;;;;;;;5.53;2.27;;;3.70;91.90;;;;;;1882121;76;21212;-49
2022/03/03 16:16:24;;;;;;;1.40;1.10;;;3.70;91.90;;;;;;1882001;76;21097;-48
2022/03/03 16:18:54;;;;;;;1.35;1.15;;;3.70;91.90;;;;;;1882147;75;21121;-50
2022/03/03 16:21:23;;;;;;;2.15;1.77;;;3.70;91.90;;;;;;1882170;75;21101;-48
2022/03/03 16:23:53;;;;;;;7.83;2.98;;;3.70;91.90;;;;;;1882129;76;21167;-49
2022/03/03 16:26:22;;;;;;;2.15;1.67;;;3.70;91.90;;;;;;1882058;75;21085;-48